Time;durP1;ratioP1;P1;durP2;ratioP2;P2;SDS_P1;SDS_P2;PMS_P1;PMS_P2;Temp;Humidity;BMP_temperature;BMP_pressure;BME280_temperature;BME280_humidity;BME280_pressure;Samples;Min_cycle;Max_cycle;Signal;HPM_P1;HPM_P2
2021/06/09 00:02:02;;;;;;;18.80;11.80;;;;;;;15.84;62.43;99086.69;2192982;81;21459;-79
2021/06/09 00:05:03;;;;;;;24.60;12.13;;;;;;;15.71;62.62;99085.00;2193254;81;20988;-79
2021/06/09 00:08:04;;;;;;;40.73;13.90;;;;;;;15.63;62.92;99082.41;2192623;81;20931;-80
2021/06/09 00:11:05;;;;;;;21.20;12.00;;;;;;;15.60;63.07;99080.66;2192908;81;20928;-79
2021/06/09 00:14:06;;;;;;;18.20;12.47;;;;;;;15.56;63.20;99078.86;2192512;81;20963;-80
2021/06/09 00:17:07;;;;;;;20.90;12.18;;;;;;;15.46;63.36;99074.96;2192881;81;20935;-79
2021/06/09 00:20:08;;;;;;;36.10;12.65;;;;;;;15.37;63.52;99076.31;2192798;80;21034;-79
2021/06/09 00:23:11;;;;;;;30.27;13.78;;;;;;;15.28;63.91;99078.53;2192967;81;20951;-78
2021/06/09 00:26:13;;;;;;;23.98;13.28;;;;;;;15.24;64.07;99078.11;2192671;81;21039;-79
2021/06/09 00:29:14;;;;;;;24.37;12.40;;;;;;;15.17;64.17;99083.83;2192873;81;21027;-79
2021/06/09 00:32:15;;;;;;;25.15;12.50;;;;;;;15.10;64.37;99074.20;2192688;81;20992;-81
2021/06/09 00:35:16;;;;;;;23.50;12.93;;;;;;;15.08;64.46;99082.54;2192862;81;20927;-79
2021/06/09 00:38:17;;;;;;;19.92;12.43;;;;;;;15.06;64.79;99084.73;2192836;81;21015;-80
2021/06/09 00:41:18;;;;;;;20.65;12.55;;;;;;;14.99;64.67;99085.19;2193211;81;20955;-79
2021/06/09 00:44:19;;;;;;;26.37;12.03;;;;;;;14.94;64.83;99085.64;2193001;81;20988;-79
2021/06/09 00:47:20;;;;;;;22.17;13.80;;;;;;;14.88;65.09;99085.20;2193051;81;20912;-79
2021/06/09 00:50:21;;;;;;;18.37;14.28;;;;;;;14.78;65.20;99085.22;2192081;81;21035;-79
2021/06/09 00:53:28;;;;;;;19.17;13.88;;;;;;;14.73;65.59;99080.38;2192952;81;20967;-82
2021/06/09 00:56:29;;;;;;;15.85;12.33;;;;;;;14.68;65.62;99083.45;2193216;81;20968;-79
2021/06/09 00:59:30;;;;;;;14.95;12.63;;;;;;;14.57;65.71;99088.27;2192780;81;20972;-80
2021/06/09 01:02:31;;;;;;;20.77;13.32;;;;;;;14.55;65.94;99092.66;2193008;81;21423;-81
2021/06/09 01:05:32;;;;;;;17.87;13.13;;;;;;;14.52;66.23;99087.84;2192949;81;21352;-80
2021/06/09 01:08:39;;;;;;;19.90;13.70;;;;;;;14.43;66.31;99086.08;2193146;81;21368;-82
2021/06/09 01:11:39;;;;;;;15.03;12.18;;;;;;;14.31;66.67;99091.30;2192938;81;20971;-79
2021/06/09 01:14:40;;;;;;;15.28;11.15;;;;;;;14.21;66.92;99089.54;2193181;81;20927;-79
2021/06/09 01:17:41;;;;;;;16.55;11.08;;;;;;;14.10;67.23;99086.90;2192993;81;20939;-79
2021/06/09 01:20:42;;;;;;;12.55;11.10;;;;;;;14.02;67.36;99084.27;2192808;80;20978;-79
2021/06/09 01:23:43;;;;;;;14.43;11.45;;;;;;;14.01;67.78;99090.82;2192950;81;20916;-79
2021/06/09 01:26:44;;;;;;;13.08;10.55;;;;;;;13.94;67.93;99090.37;2192969;81;20963;-79
2021/06/09 01:29:45;;;;;;;14.45;10.55;;;;;;;13.87;68.05;99089.48;2193029;81;20936;-80
2021/06/09 01:32:47;;;;;;;15.72;11.48;;;;;;;13.86;68.00;99089.44;2192959;81;20935;-80
2021/06/09 01:35:47;;;;;;;11.83;10.75;;;;;;;13.90;68.34;99093.42;2192876;81;21295;-81
2021/06/09 01:38:48;;;;;;;14.63;12.37;;;;;;;13.92;68.12;99097.36;2193140;81;20908;-79
2021/06/09 01:41:49;;;;;;;31.42;13.25;;;;;;;13.88;68.29;99092.55;2193159;81;21315;-79
2021/06/09 01:44:50;;;;;;;16.62;12.13;;;;;;;13.79;68.54;99095.55;2193222;81;21311;-79
2021/06/09 01:47:52;;;;;;;18.73;11.55;;;;;;;13.69;68.69;99094.64;2193071;81;20932;-79
2021/06/09 01:50:53;;;;;;;13.40;12.07;;;;;;;13.61;69.00;99099.86;2175269;81;21060;-79
2021/06/09 01:53:54;;;;;;;26.07;13.60;;;;;;;13.54;69.03;99105.08;2169391;82;21059;-80
2021/06/09 01:56:55;;;;;;;16.62;11.80;;;;;;;13.53;69.49;99103.32;2169991;82;20881;-80
2021/06/09 01:59:56;;;;;;;17.85;12.63;;;;;;;13.50;69.47;99103.31;2170115;82;20952;-79
2021/06/09 02:03:00;;;;;;;15.93;12.00;;;;;;;13.43;69.59;99108.09;2169831;82;20948;-79
2021/06/09 02:06:02;;;;;;;14.28;12.78;;;;;;;13.38;69.58;99097.14;2169962;82;20950;-80
2021/06/09 02:09:02;;;;;;;15.32;12.80;;;;;;;13.41;69.87;99106.77;2169691;82;20980;-79
2021/06/09 02:12:03;;;;;;;18.73;12.58;;;;;;;13.39;69.82;99101.95;2169981;82;20984;-80
2021/06/09 02:15:04;;;;;;;14.63;12.80;;;;;;;13.37;70.05;99101.94;2170053;82;20921;-79
2021/06/09 02:18:13;;;;;;;17.95;13.38;;;;;;;13.35;70.09;99104.12;2169353;82;20912;-79
2021/06/09 02:21:11;;;;;;;40.52;16.80;;;;;;;13.50;71.85;99108.55;2168501;82;20952;-80
2021/06/09 02:24:12;;;;;;;15.63;13.45;;;;;;;14.07;71.94;99108.33;2169708;82;20961;-78
2021/06/09 02:27:13;;;;;;;21.85;14.50;;;;;;;14.15;69.55;99103.97;2169659;82;20937;-80
2021/06/09 02:30:14;;;;;;;17.87;15.15;;;;;;;13.99;69.25;99111.81;2170001;82;21241;-79
2021/06/09 02:33:15;;;;;;;17.23;15.25;;;;;;;13.79;69.24;99115.22;2170171;82;20980;-80
2021/06/09 02:36:16;;;;;;;18.37;15.43;;;;;;;13.66;69.62;99116.48;2170165;82;20905;-80
2021/06/09 02:39:17;;;;;;;125.40;24.82;;;;;;;13.58;69.89;99114.70;2169928;82;21297;-78
2021/06/09 02:42:18;;;;;;;29.87;16.55;;;;;;;13.51;70.09;99115.55;2169242;82;20980;-78
2021/06/09 02:45:19;;;;;;;23.25;15.43;;;;;;;13.50;70.36;99120.36;2169343;82;20976;-78
2021/06/09 02:48:19;;;;;;;22.62;15.72;;;;;;;13.50;70.19;99119.05;2169867;81;20925;-80
2021/06/09 02:51:21;;;;;;;21.35;15.65;;;;;;;13.50;70.34;99117.30;2169295;82;21400;-81
2021/06/09 02:54:22;;;;;;;20.25;14.98;;;;;;;13.48;70.36;99118.16;2169547;82;20956;-80
2021/06/09 02:57:23;;;;;;;20.27;15.90;;;;;;;13.42;70.26;99128.62;2169656;82;21413;-81
2021/06/09 03:00:25;;;;;;;17.00;15.28;;;;;;;13.33;70.47;99127.70;2169622;82;20965;-80
2021/06/09 03:03:25;;;;;;;21.10;15.75;;;;;;;13.30;70.55;99123.76;2169568;82;20961;-80
2021/06/09 03:06:27;;;;;;;20.55;15.35;;;;;;;13.31;70.66;99115.02;2169422;82;20955;-79
2021/06/09 03:09:28;;;;;;;18.35;15.30;;;;;;;13.31;70.57;99118.95;2169423;82;20913;-80
2021/06/09 03:12:35;;;;;;;16.87;14.63;;;;;;;13.31;70.64;99116.34;2169507;82;20964;-81
2021/06/09 03:15:31;;;;;;;21.10;14.47;;;;;;;13.31;70.72;99111.09;2168439;82;20928;-80
2021/06/09 03:18:32;;;;;;;17.57;14.05;;;;;;;13.32;70.95;99110.22;2169507;82;20948;-79
2021/06/09 03:21:33;;;;;;;21.93;12.95;;;;;;;13.34;70.79;99109.80;2169408;82;21085;-80
2021/06/09 03:24:34;;;;;;;17.95;14.90;;;;;;;13.37;70.85;99105.00;2169625;82;20964;-80
2021/06/09 03:27:35;;;;;;;17.15;12.40;;;;;;;13.42;70.79;99104.59;2169630;82;20956;-80
2021/06/09 03:30:36;;;;;;;19.65;13.38;;;;;;;13.46;70.77;99106.36;2169762;82;20897;-81
2021/06/09 03:33:37;;;;;;;16.35;12.80;;;;;;;13.52;70.79;99106.81;2169701;82;20916;-81
2021/06/09 03:36:38;;;;;;;113.37;20.68;;;;;;;13.56;70.92;99102.02;2169337;82;20956;-81
2021/06/09 03:39:39;;;;;;;19.75;14.23;;;;;;;13.60;70.94;99106.41;2169682;82;20920;-81
2021/06/09 03:42:39;;;;;;;561.58;60.23;;;;;;;13.70;70.93;99104.27;2169617;82;21007;-80
2021/06/09 03:45:41;;;;;;;17.20;13.18;;;;;;;13.72;70.96;99101.20;2169618;82;20912;-80
2021/06/09 03:48:41;;;;;;;72.37;17.90;;;;;;;13.78;70.93;99098.60;2169635;81;20908;-81
2021/06/09 03:51:43;;;;;;;23.75;14.45;;;;;;;13.88;71.28;99099.53;2169549;82;21451;-80
2021/06/09 03:54:43;;;;;;;37.17;16.35;;;;;;;14.06;71.09;99106.58;2170215;82;20929;-80
2021/06/09 03:57:44;;;;;;;130.15;21.30;;;;;;;14.26;71.22;99099.61;2170256;82;20928;-81
2021/06/09 04:00:45;;;;;;;56.00;16.82;;;;;;;14.56;70.96;99106.22;2170376;82;20937;-80
2021/06/09 04:03:46;;;;;;;28.30;14.65;;;;;;;14.90;70.68;99096.59;2170161;82;20979;-80
2021/06/09 04:06:47;;;;;;;31.35;14.33;;;;;;;15.25;70.22;99104.41;2170146;82;20893;-81
2021/06/09 04:09:48;;;;;;;29.92;13.90;;;;;;;15.56;69.91;99096.41;2169917;82;20965;-81
2021/06/09 04:12:49;;;;;;;32.85;14.78;;;;;;;15.89;69.55;99094.98;2169791;82;20928;-78
2021/06/09 04:15:50;;;;;;;18.82;14.87;;;;;;;16.25;68.86;99095.64;2170017;81;20951;-78
2021/06/09 04:18:51;;;;;;;49.55;16.02;;;;;;;16.55;68.14;99098.08;2169925;81;20901;-79
2021/06/09 04:21:52;;;;;;;23.15;13.75;;;;;;;16.79;67.55;99095.70;2169957;82;20964;-80
2021/06/09 04:24:53;;;;;;;14.93;13.35;;;;;;;17.07;66.91;99096.31;2170126;82;20948;-80
2021/06/09 04:27:54;;;;;;;22.75;13.22;;;;;;;17.52;65.69;99094.08;2169753;82;20940;-80
2021/06/09 04:30:55;;;;;;;14.80;11.70;;;;;;;17.52;65.69;99094.08;2169991;82;21329;-80
2021/06/09 04:33:57;;;;;;;13.00;11.70;;;;;;;17.71;65.15;99099.59;2169986;82;20932;-81
2021/06/09 04:36:57;;;;;;;13.90;10.75;;;;;;;17.92;64.70;99100.20;2170138;82;20941;-81
2021/06/09 04:39:59;;;;;;;16.67;11.97;;;;;;;18.12;64.02;99102.11;2170206;81;20932;-79
2021/06/09 04:43:00;;;;;;;14.40;11.88;;;;;;;18.25;63.54;99103.71;2169768;82;20960;-81
2021/06/09 04:46:01;;;;;;;14.45;10.58;;;;;;;18.40;63.36;99098.19;2169838;82;20940;-80
2021/06/09 04:49:02;;;;;;;11.97;10.45;;;;;;;18.51;62.96;99109.91;2169304;81;20940;-80
2021/06/09 04:52:03;;;;;;;19.02;10.53;;;;;;;18.68;62.58;99106.58;2189113;81;20959;-79
2021/06/09 04:55:04;;;;;;;11.90;10.80;;;;;;;18.85;62.48;99109.39;2193197;81;20904;-80
2021/06/09 04:58:05;;;;;;;15.32;10.85;;;;;;;19.07;61.83;99111.66;2192796;81;21341;-80
2021/06/09 05:01:06;;;;;;;14.50;9.88;;;;;;;19.23;61.31;99106.95;2192590;81;20936;-79
2021/06/09 05:04:07;;;;;;;14.18;10.00;;;;;;;19.38;60.96;99110.63;2193176;81;20931;-81
2021/06/09 05:07:08;;;;;;;13.60;10.32;;;;;;;19.48;60.46;99107.35;2193404;81;20991;-79
2021/06/09 05:10:09;;;;;;;11.53;10.32;;;;;;;19.59;60.43;99100.09;2192317;81;21368;-79
2021/06/09 05:13:10;;;;;;;15.08;10.68;;;;;;;19.46;60.17;99108.28;2191628;81;20947;-80
2021/06/09 05:16:14;;;;;;;51.50;13.78;;;;;;;19.36;60.63;99108.47;2192388;81;20939;-79
2021/06/09 05:19:15;;;;;;;14.45;10.53;;;;;;;19.30;60.49;99105.94;2191552;80;21081;-79
2021/06/09 05:22:16;;;;;;;14.55;9.25;;;;;;;19.32;60.78;99109.42;2192024;81;20995;-79
2021/06/09 05:25:17;;;;;;;12.50;9.90;;;;;;;19.30;60.62;99116.97;2192680;81;20928;-79
2021/06/09 05:28:18;;;;;;;11.78;9.00;;;;;;;19.36;60.95;99119.05;2192160;81;20979;-78
2021/06/09 05:31:19;;;;;;;10.08;9.18;;;;;;;19.32;60.53;99109.42;2192417;81;20963;-78
2021/06/09 05:34:20;;;;;;;100.82;17.87;;;;;;;19.39;60.36;99118.13;2192135;81;21303;-78
2021/06/09 05:37:21;;;;;;;9.88;8.70;;;;;;;19.46;60.30;99112.26;2192086;81;20955;-79
2021/06/09 05:40:22;;;;;;;10.05;8.65;;;;;;;19.73;60.21;99108.63;2192876;81;21032;-80
2021/06/09 05:43:23;;;;;;;11.15;8.15;;;;;;;20.00;59.21;99109.84;2192980;81;20939;-79
2021/06/09 05:46:24;;;;;;;12.43;9.03;;;;;;;20.13;58.50;99109.13;2192791;81;20896;-78
2021/06/09 05:49:25;;;;;;;13.30;8.20;;;;;;;20.38;58.73;99105.91;2192664;79;20995;-78
2021/06/09 05:52:26;;;;;;;12.15;7.92;;;;;;;20.68;57.90;99111.83;2151201;81;20940;-80
2021/06/09 05:55:27;;;;;;;8.58;7.72;;;;;;;20.81;56.94;99112.42;2148281;83;21303;-78
2021/06/09 05:58:29;;;;;;;10.25;7.58;;;;;;;20.93;56.47;99108.13;2148283;83;21294;-80
2021/06/09 06:01:30;;;;;;;13.58;7.67;;;;;;;21.11;55.70;99112.09;2148610;83;20939;-79
2021/06/09 06:04:31;;;;;;;16.32;7.80;;;;;;;21.21;55.81;99111.80;2148185;83;20951;-78
2021/06/09 06:07:32;;;;;;;21.93;7.87;;;;;;;21.40;54.83;99119.30;2148387;83;20947;-80
2021/06/09 06:10:33;;;;;;;13.88;7.10;;;;;;;21.42;54.08;99118.34;2148190;83;20952;-81
2021/06/09 06:13:34;;;;;;;10.20;6.78;;;;;;;21.46;54.34;99119.13;2148190;83;20944;-78
2021/06/09 06:16:37;;;;;;;21.68;16.52;;;;;;;21.63;53.96;99120.85;2147862;83;20955;-79
2021/06/09 06:19:38;;;;;;;54.25;9.30;;;;;;;21.95;54.25;99119.95;2148113;80;21006;-81
2021/06/09 06:22:40;;;;;;;7.35;6.47;;;;;;;22.13;52.82;99117.23;2148098;83;21015;-80
2021/06/09 06:25:41;;;;;;;9.60;7.17;;;;;;;22.12;51.48;99131.44;2148217;83;21316;-79
2021/06/09 06:28:42;;;;;;;8.33;6.10;;;;;;;22.16;50.93;99127.77;2148362;83;20971;-79
2021/06/09 06:31:43;;;;;;;13.60;6.42;;;;;;;22.28;51.03;99121.20;2147592;83;20932;-81
2021/06/09 06:34:44;;;;;;;9.68;5.80;;;;;;;22.44;50.50;99119.34;2148786;83;20987;-81
2021/06/09 06:37:47;;;;;;;6.22;5.50;;;;;;;22.69;50.53;99122.57;2148499;83;21336;-80
2021/06/09 06:40:49;;;;;;;6.03;5.42;;;;;;;22.92;48.72;99123.17;2148437;83;21287;-80
2021/06/09 06:43:49;;;;;;;6.40;5.17;;;;;;;22.93;48.12;99128.91;2148002;83;21030;-80
2021/06/09 06:46:51;;;;;;;5.70;5.03;;;;;;;23.07;48.08;99127.97;2148459;83;20968;-80
2021/06/09 06:49:51;;;;;;;6.37;5.40;;;;;;;23.17;47.09;99127.60;2148286;82;21098;-79
2021/06/09 06:52:54;;;;;;;6.22;5.47;;;;;;;23.26;46.94;99119.75;2176246;82;21022;-79
2021/06/09 06:55:55;;;;;;;11.08;5.67;;;;;;;23.30;46.08;99124.05;2176130;82;21048;-80
2021/06/09 06:58:56;;;;;;;12.07;5.12;;;;;;;23.32;45.60;99131.98;2175978;81;20919;-80
2021/06/09 07:01:57;;;;;;;5.72;5.22;;;;;;;23.28;45.17;99127.23;2176220;81;20972;-79
2021/06/09 07:04:58;;;;;;;8.83;5.45;;;;;;;23.31;45.19;99125.78;2176497;82;20969;-81
2021/06/09 07:07:59;;;;;;;6.22;4.58;;;;;;;23.50;45.60;99134.03;2176499;82;21281;-80
2021/06/09 07:10:59;;;;;;;13.25;4.90;;;;;;;23.55;42.69;99133.89;2176323;82;21288;-81
2021/06/09 07:14:00;;;;;;;9.08;4.65;;;;;;;23.60;43.69;99135.47;2175991;82;21383;-79
2021/06/09 07:17:02;;;;;;;7.90;4.85;;;;;;;23.75;43.15;99129.57;2176263;82;21047;-79
2021/06/09 07:20:03;;;;;;;5.20;4.80;;;;;;;23.99;43.07;99126.45;2175922;80;21043;-80
2021/06/09 07:23:04;;;;;;;10.05;5.30;;;;;;;24.07;42.18;99123.02;2175953;82;20932;-79
2021/06/09 07:26:05;;;;;;;7.47;4.85;;;;;;;24.24;42.66;99124.16;2176312;82;20952;-79
2021/06/09 07:29:06;;;;;;;5.67;5.17;;;;;;;24.17;42.26;99121.34;2176227;82;20905;-79
2021/06/09 07:32:07;;;;;;;6.37;5.00;;;;;;;24.10;42.21;99125.58;2176711;82;20964;-80
2021/06/09 07:35:08;;;;;;;11.60;4.95;;;;;;;24.40;42.77;99125.37;2176181;81;21008;-79
2021/06/09 07:38:10;;;;;;;4.75;4.35;;;;;;;24.46;41.65;99123.78;2176146;82;21053;-80
2021/06/09 07:41:11;;;;;;;6.83;4.20;;;;;;;24.56;40.04;99120.28;2176321;82;20921;-79
2021/06/09 07:44:12;;;;;;;4.65;4.35;;;;;;;24.61;40.02;99123.17;2176374;82;20908;-80
2021/06/09 07:47:13;;;;;;;9.08;4.58;;;;;;;24.99;40.66;99116.27;2176206;81;20976;-79
2021/06/09 07:50:14;;;;;;;6.95;4.08;;;;;;;25.12;39.06;99117.08;2176377;81;21182;-79
2021/06/09 07:53:15;;;;;;;7.17;4.10;;;;;;;24.95;38.90;99116.43;2191610;81;21375;-80
2021/06/09 07:56:17;;;;;;;4.75;4.12;;;;;;;24.94;38.55;99114.69;2192307;81;20959;-80
2021/06/09 07:59:18;;;;;;;6.22;4.30;;;;;;;25.18;39.32;99115.05;2192486;81;20979;-80
2021/06/09 08:02:19;;;;;;;4.50;4.10;;;;;;;25.78;38.88;99117.30;2191966;81;20970;-78
2021/06/09 08:05:20;;;;;;;5.22;4.65;;;;;;;25.83;36.54;99118.42;2191389;81;20995;-77
2021/06/09 08:08:21;;;;;;;6.78;3.33;;;;;;;25.70;36.60;99119.45;2191734;81;21063;-78
2021/06/09 08:11:22;;;;;;;5.65;3.75;;;;;;;25.69;35.34;99122.59;2192347;81;20910;-80
2021/06/09 08:14:23;;;;;;;6.67;3.65;;;;;;;25.65;35.95;99122.34;2192234;81;20935;-79
2021/06/09 08:20:24;;;;;;;7.67;3.70;;;;;;;26.27;37.02;99118.59;2191687;80;21041;-80
2021/06/09 08:23:26;;;;;;;5.00;3.70;;;;;;;26.64;34.35;99116.36;2192018;81;20966;-81
2021/06/09 08:26:32;;;;;;;6.25;3.58;;;;;;;26.44;34.46;99112.92;2191737;81;20943;-80
2021/06/09 08:29:37;;;;;;;5.65;3.55;;;;;;;25.96;34.65;99120.47;2191971;81;20907;-77
2021/06/09 08:32:36;;;;;;;5.83;3.65;;;;;;;25.88;34.65;99119.08;2191777;81;20992;-80
2021/06/09 08:35:37;;;;;;;6.28;3.80;;;;;;;25.98;34.79;99121.26;2192091;81;20992;-82
2021/06/09 08:38:38;;;;;;;4.33;3.62;;;;;;;26.12;34.66;99117.97;2192139;81;20943;-80
2021/06/09 08:41:43;;;;;;;4.22;3.58;;;;;;;26.33;34.82;99112.11;2192360;81;20944;-81
2021/06/09 08:44:43;;;;;;;5.23;3.70;;;;;;;25.76;33.80;99117.84;2192086;81;21014;-80
2021/06/09 08:47:44;;;;;;;7.20;3.30;;;;;;;25.76;33.80;99117.84;2191800;81;21401;-80
2021/06/09 08:50:47;;;;;;;7.75;3.58;;;;;;;25.47;34.54;99115.11;2192171;80;21041;-80
2021/06/09 08:53:47;;;;;;;3.77;3.40;;;;;;;25.76;34.07;99121.84;2192083;81;21004;-78
2021/06/09 08:56:50;;;;;;;5.08;3.35;;;;;;;25.83;33.98;99116.62;2191905;81;20947;-79
2021/06/09 08:59:51;;;;;;;3.60;3.25;;;;;;;25.99;33.41;99120.79;2191771;81;20987;-79
2021/06/09 09:02:53;;;;;;;5.12;3.45;;;;;;;26.03;32.78;99125.09;2191653;81;20955;-80
2021/06/09 09:05:54;;;;;;;3.77;3.47;;;;;;;25.82;32.96;99110.88;2192229;81;20975;-80
2021/06/09 09:08:56;;;;;;;7.33;3.35;;;;;;;26.27;32.76;99113.70;2191355;81;20935;-79
2021/06/09 09:11:57;;;;;;;5.78;3.90;;;;;;;26.60;32.06;99113.91;2191301;81;20940;-78
2021/06/09 09:14:58;;;;;;;7.62;3.70;;;;;;;26.12;32.90;99113.09;2191208;81;20947;-80
2021/06/09 09:17:59;;;;;;;12.47;4.65;;;;;;;25.80;33.88;99112.75;2192200;81;21307;-79
2021/06/09 09:21:00;;;;;;;6.60;3.72;;;;;;;25.69;33.96;99120.39;2192260;80;21358;-80
2021/06/09 09:24:04;;;;;;;5.47;3.67;;;;;;;25.59;33.93;99120.38;2192456;81;21327;-80
2021/06/09 09:27:03;;;;;;;5.60;3.80;;;;;;;25.96;33.46;99115.11;2192301;81;21003;-80
2021/06/09 09:30:04;;;;;;;4.60;3.58;;;;;;;26.14;33.01;99116.09;2192489;81;21110;-78
2021/06/09 09:33:05;;;;;;;9.58;3.90;;;;;;;26.16;33.48;99111.54;2192413;81;20973;-78
2021/06/09 09:36:06;;;;;;;3.75;3.45;;;;;;;26.88;32.89;99116.98;2192412;81;20943;-80
2021/06/09 09:39:07;;;;;;;3.70;3.40;;;;;;;27.38;30.91;99108.20;2192384;81;20892;-81
2021/06/09 09:42:08;;;;;;;8.63;3.87;;;;;;;27.28;29.89;99104.27;2192600;81;20945;-80
2021/06/09 09:45:09;;;;;;;5.55;3.85;;;;;;;27.60;30.95;99094.08;2192700;81;21011;-81
2021/06/09 09:48:10;;;;;;;19.27;15.75;;;;;;;27.81;30.28;99094.77;2192483;81;20956;-80
2021/06/09 09:51:11;;;;;;;17.65;4.20;;;;;;;27.58;31.76;99097.28;2188351;80;21027;-79
2021/06/09 09:54:13;;;;;;;4.10;3.50;;;;;;;28.20;30.52;99093.52;2170975;81;21360;-81
2021/06/09 09:57:14;;;;;;;4.22;3.85;;;;;;;27.79;29.26;99094.45;2170241;82;20955;-81
2021/06/09 10:00:15;;;;;;;4.50;3.35;;;;;;;27.26;31.26;99094.09;2170148;82;21105;-80
2021/06/09 10:03:19;;;;;;;4.90;3.67;;;;;;;27.39;31.22;99084.94;2170116;82;21002;-80
2021/06/09 10:06:19;;;;;;;38.75;5.65;;;;;;;26.99;30.84;99100.41;2169878;82;21299;-79
2021/06/09 10:09:20;;;;;;;4.30;3.67;;;;;;;26.69;32.45;99106.77;2169633;82;20936;-81
2021/06/09 10:12:21;;;;;;;23.40;4.47;;;;;;;26.71;31.68;99110.23;2169794;81;20952;-79
2021/06/09 10:15:22;;;;;;;7.00;3.42;;;;;;;26.64;32.38;99108.80;2170094;82;20928;-80
2021/06/09 10:18:24;;;;;;;4.08;3.33;;;;;;;26.61;31.54;99108.48;2169851;82;20925;-80
2021/06/09 10:21:26;;;;;;;6.03;4.05;;;;;;;26.36;31.25;99105.27;2169727;81;21087;-80
2021/06/09 10:24:27;;;;;;;6.42;4.42;;;;;;;26.14;32.04;99108.54;2169535;81;20931;-80
2021/06/09 10:27:28;;;;;;;8.63;4.97;;;;;;;26.00;32.49;99107.81;2169544;82;20943;-81
2021/06/09 10:30:29;;;;;;;6.78;4.30;;;;;;;25.90;33.46;99109.19;2169419;82;20961;-81
2021/06/09 10:33:30;;;;;;;12.95;4.10;;;;;;;25.77;33.96;99116.91;2169426;81;21144;-79
2021/06/09 10:36:31;;;;;;;7.37;4.47;;;;;;;25.73;33.67;99109.95;2169380;82;21367;-80
2021/06/09 10:39:32;;;;;;;5.05;3.87;;;;;;;25.83;33.85;99109.06;2170301;82;20964;-81
2021/06/09 10:42:33;;;;;;;7.75;4.00;;;;;;;26.09;33.31;99110.09;2169768;82;20971;-81
2021/06/09 10:45:39;;;;;;;6.75;4.20;;;;;;;26.11;33.54;99108.69;2170255;82;20972;-80
2021/06/09 10:48:40;;;;;;;7.10;3.75;;;;;;;26.18;33.32;99107.45;2170094;82;20943;-80
2021/06/09 10:51:41;;;;;;;4.37;3.92;;;;;;;26.49;34.18;99101.52;2175613;81;21015;-80
2021/06/09 10:54:42;;;;;;;5.78;4.67;;;;;;;26.38;33.94;99102.05;2192246;81;20988;-78
2021/06/09 10:57:43;;;;;;;5.15;3.55;;;;;;;26.06;34.68;99095.99;2192340;81;20931;-78
2021/06/09 11:00:44;;;;;;;4.45;3.90;;;;;;;26.51;35.20;99096.49;2192190;81;20928;-79
2021/06/09 11:03:46;;;;;;;5.42;3.80;;;;;;;26.72;33.00;99093.70;2192696;81;20963;-80
2021/06/09 11:06:49;;;;;;;9.03;4.07;;;;;;;27.19;33.29;99092.20;2192674;81;21015;-80
2021/06/09 11:09:50;;;;;;;4.97;3.85;;;;;;;27.19;32.43;99088.19;2192062;81;21004;-80
2021/06/09 11:12:51;;;;;;;4.33;3.25;;;;;;;27.44;32.53;99081.54;2192132;81;20955;-79
2021/06/09 11:15:52;;;;;;;5.42;3.30;;;;;;;27.33;28.62;99093.30;2192609;81;20936;-81
2021/06/09 11:18:53;;;;;;;3.77;3.33;;;;;;;27.39;28.85;99082.26;2192336;81;20927;-80
2021/06/09 11:21:53;;;;;;;5.30;3.67;;;;;;;27.63;29.22;99083.66;2192664;81;21002;-80
2021/06/09 11:24:54;;;;;;;4.83;3.45;;;;;;;27.97;28.90;99077.83;2192780;81;20979;-81
2021/06/09 11:27:55;;;;;;;5.55;4.70;;;;;;;28.18;29.44;99079.31;2192001;81;21301;-81
2021/06/09 11:30:57;;;;;;;4.70;3.80;;;;;;;28.30;29.96;99075.10;2192429;81;20987;-83
2021/06/09 11:34:00;;;;;;;3.37;3.17;;;;;;;28.10;29.76;99068.14;2192406;81;20925;-81
2021/06/09 11:37:01;;;;;;;4.53;3.80;;;;;;;27.47;29.90;99081.38;2192688;81;21010;-78
2021/06/09 11:40:02;;;;;;;5.20;3.58;;;;;;;27.01;30.31;99077.09;2193205;81;20946;-80
2021/06/09 11:43:03;;;;;;;3.77;3.47;;;;;;;26.95;30.51;99078.70;2192878;81;20986;-79
2021/06/09 11:46:03;;;;;;;5.83;3.80;;;;;;;26.87;31.36;99072.84;2192600;81;21336;-80
2021/06/09 11:49:05;;;;;;;7.05;3.70;;;;;;;26.62;32.38;99070.06;2192566;81;20919;-81
2021/06/09 11:52:06;;;;;;;7.22;4.12;;;;;;;26.48;33.10;99069.88;2184857;81;21007;-80
2021/06/09 11:55:07;;;;;;;10.98;3.90;;;;;;;26.52;34.19;99066.58;2169602;82;21337;-80
2021/06/09 11:58:07;;;;;;;5.75;4.12;;;;;;;26.70;31.32;99067.00;2169704;82;20944;-80
2021/06/09 12:01:14;;;;;;;6.10;3.52;;;;;;;26.78;30.96;99066.61;2169276;82;20996;-80
2021/06/09 12:04:22;;;;;;;8.45;4.10;;;;;;;27.03;31.45;99063.14;2169241;82;21404;-80
2021/06/09 12:07:23;;;;;;;5.72;3.60;;;;;;;27.09;30.38;99052.58;2170340;82;20996;-80
2021/06/09 12:10:23;;;;;;;7.60;3.60;;;;;;;27.35;29.70;99052.55;2170360;82;20936;-81
2021/06/09 12:13:25;;;;;;;7.90;3.95;;;;;;;26.97;29.33;99054.05;2169542;82;20921;-80
2021/06/09 12:16:26;;;;;;;4.85;3.77;;;;;;;26.58;30.32;99040.84;2171064;82;21003;-80
2021/06/09 12:19:33;;;;;;;4.70;3.98;;;;;;;26.70;31.44;99034.00;2170210;81;20909;-80
2021/06/09 12:22:34;;;;;;;6.15;4.20;;;;;;;26.97;31.20;99028.59;2169556;82;21003;-79
2021/06/09 12:25:35;;;;;;;10.53;4.42;;;;;;;27.10;31.01;99027.04;2170261;82;20948;-82
2021/06/09 12:28:36;;;;;;;22.35;15.05;;;;;;;26.72;31.80;99028.09;2170647;82;20980;-79
2021/06/09 12:31:37;;;;;;;8.75;5.25;;;;;;;26.39;32.78;99031.52;2170347;82;20917;-79
2021/06/09 12:34:39;;;;;;;14.07;6.03;;;;;;;26.22;32.94;99026.97;2170517;82;20988;-82
2021/06/09 12:37:40;;;;;;;5.95;4.17;;;;;;;26.11;33.37;99029.77;2170773;82;20984;-80
2021/06/09 12:40:41;;;;;;;5.72;4.37;;;;;;;25.88;33.57;99037.05;2170200;81;20929;-81
2021/06/09 12:43:45;;;;;;;10.03;4.83;;;;;;;25.66;34.86;99041.67;2170443;82;21355;-81
2021/06/09 12:46:46;;;;;;;8.10;4.90;;;;;;;25.21;37.59;99052.61;2170406;81;21008;-81
2021/06/09 12:49:47;;;;;;;11.88;4.87;;;;;;;24.69;38.87;99051.66;2170944;81;20964;-80
2021/06/09 12:52:48;;;;;;;10.95;4.92;;;;;;;24.43;40.03;99050.53;2180911;81;20979;-77
2021/06/09 12:55:49;;;;;;;8.33;5.05;;;;;;;24.18;40.55;99045.27;2192850;81;21198;-78
2021/06/09 12:58:50;;;;;;;5.65;5.10;;;;;;;24.06;41.64;99044.42;2193071;81;20928;-80
2021/06/09 13:01:51;;;;;;;9.15;5.33;;;;;;;24.04;41.76;99048.95;2192354;81;21012;-78
2021/06/09 13:04:52;;;;;;;7.10;4.80;;;;;;;24.04;42.21;99052.95;2192339;81;21303;-78
2021/06/09 13:07:53;;;;;;;6.37;4.60;;;;;;;24.11;42.23;99052.64;2192718;81;20987;-80
2021/06/09 13:10:56;;;;;;;40.12;7.08;;;;;;;24.19;42.19;99050.13;2171646;81;20942;-79
2021/06/09 13:13:57;;;;;;;9.20;5.17;;;;;;;24.29;41.42;99049.77;2192230;81;20974;-79
2021/06/09 13:16:58;;;;;;;11.25;5.15;;;;;;;24.31;41.31;99031.03;2192439;81;20928;-79
2021/06/09 13:19:59;;;;;;;10.35;4.83;;;;;;;24.35;41.45;99041.52;2192465;81;21011;-78
2021/06/09 13:23:03;;;;;;;8.63;4.80;;;;;;;24.07;41.68;99047.48;2192375;81;21022;-80
2021/06/09 13:26:02;;;;;;;9.45;5.28;;;;;;;23.82;42.49;99043.12;2192097;81;21390;-79
2021/06/09 13:29:03;;;;;;;6.05;4.95;;;;;;;23.68;43.03;99043.24;2191986;81;20952;-79
2021/06/09 13:32:04;;;;;;;8.23;4.78;;;;;;;23.59;44.20;99050.25;2192235;81;20934;-79
2021/06/09 13:35:07;;;;;;;10.45;4.85;;;;;;;23.43;43.58;99046.80;2191995;81;21024;-78
2021/06/09 13:38:08;;;;;;;6.30;4.62;;;;;;;23.36;44.32;99037.27;2192193;81;21399;-78
2021/06/09 13:41:09;;;;;;;7.87;5.40;;;;;;;23.29;43.55;99040.20;2192154;81;20908;-79
2021/06/09 13:44:10;;;;;;;13.38;5.00;;;;;;;23.23;44.62;99035.97;2192111;81;20966;-78
2021/06/09 13:47:10;;;;;;;8.88;5.37;;;;;;;23.26;44.84;99034.53;2192169;81;21550;-80
2021/06/09 13:50:12;;;;;;;7.72;5.37;;;;;;;23.07;45.07;99038.32;2192123;81;20995;-79
2021/06/09 13:53:12;;;;;;;18.15;5.97;;;;;;;22.79;45.27;99045.04;2180054;80;21403;-78
2021/06/09 13:56:13;;;;;;;7.95;5.47;;;;;;;22.50;46.58;99056.63;2168916;82;21023;-79
2021/06/09 13:59:14;;;;;;;12.85;6.50;;;;;;;22.19;47.88;99045.25;2169135;82;20968;-80
2021/06/09 14:02:24;;;;;;;6.70;6.00;;;;;;;21.91;49.06;99032.80;2168993;82;20940;-79
2021/06/09 14:05:20;;;;;;;10.05;6.40;;;;;;;21.71;50.41;99036.52;2167846;82;21687;-80
2021/06/09 14:08:22;;;;;;;7.92;6.12;;;;;;;21.52;52.09;99041.94;2168809;82;21408;-77